sensor_id;sensor_type;location;lat;lon;timestamp;pressure;altitude;pressure_sealevel;temperature;humidity
21449;BME280;10885;52.830;13.788;2022-08-19T05:29:40;100438.53;;;21.50;67.49
21449;BME280;10885;52.830;13.788;2022-08-19T05:34:43;100428.19;;;21.57;66.67
21449;BME280;10885;52.830;13.788;2022-08-19T05:39:45;100423.88;;;21.64;66.28
21449;BME280;10885;52.830;13.788;2022-08-19T05:44:52;100439.63;;;21.73;66.14
21449;BME280;10885;52.830;13.788;2022-08-19T05:49:55;100437.16;;;21.87;65.63
21449;BME280;10885;52.830;13.788;2022-08-19T05:54:57;100438.22;;;22.09;65.57
21449;BME280;10885;52.830;13.788;2022-08-19T06:00:00;100435.84;;;22.37;65.43
21449;BME280;10885;52.830;13.788;2022-08-19T06:05:24;100439.53;;;22.73;64.86
21449;BME280;10885;52.830;13.788;2022-08-19T06:10:26;100448.47;;;23.15;63.83
21449;BME280;10885;52.830;13.788;2022-08-19T06:15:28;100439.84;;;23.59;63.37
21449;BME280;10885;52.830;13.788;2022-08-19T06:20:31;100438.19;;;24.09;62.85
21449;BME280;10885;52.830;13.788;2022-08-19T06:25:54;100436.38;;;24.45;61.52
21449;BME280;10885;52.830;13.788;2022-08-19T06:30:57;100442.56;;;24.08;61.74
21449;BME280;10885;52.830;13.788;2022-08-19T06:35:59;100437.25;;;23.59;62.30
21449;BME280;10885;52.830;13.788;2022-08-19T06:41:03;100441.47;;;23.14;63.23
21449;BME280;10885;52.830;13.788;2022-08-19T06:46:15;100450.91;;;22.87;64.79
21449;BME280;10885;52.830;13.788;2022-08-19T06:51:18;100457.88;;;22.80;63.98
21449;BME280;10885;52.830;13.788;2022-08-19T06:56:25;100456.13;;;22.82;64.00
21449;BME280;10885;52.830;13.788;2022-08-19T07:01:38;100443.06;;;22.87;63.89
21449;BME280;10885;52.830;13.788;2022-08-19T07:06:41;100433.53;;;22.92;63.84
21449;BME280;10885;52.830;13.788;2022-08-19T07:11:50;100432.69;;;22.96;63.90
21449;BME280;10885;52.830;13.788;2022-08-19T07:16:55;100454.41;;;22.88;63.89
21449;BME280;10885;52.830;13.788;2022-08-19T07:21:58;100462.22;;;22.81;63.96
21449;BME280;10885;52.830;13.788;2022-08-19T07:27:04;100470.06;;;22.83;64.17
21449;BME280;10885;52.830;13.788;2022-08-19T07:32:16;100470.94;;;22.83;64.37
21449;BME280;10885;52.830;13.788;2022-08-19T07:37:18;100479.69;;;22.93;64.11
21449;BME280;10885;52.830;13.788;2022-08-19T07:42:20;100485.75;;;22.83;64.06
21449;BME280;10885;52.830;13.788;2022-08-19T07:47:23;100502.16;;;22.59;64.94
21449;BME280;10885;52.830;13.788;2022-08-19T07:52:45;100503.84;;;22.55;65.23
21449;BME280;10885;52.830;13.788;2022-08-19T07:57:50;100497.88;;;22.73;64.74
21449;BME280;10885;52.830;13.788;2022-08-19T08:02:54;100492.78;;;22.96;64.42
21449;BME280;10885;52.830;13.788;2022-08-19T08:07:57;100483.41;;;23.41;63.91
21449;BME280;10885;52.830;13.788;2022-08-19T08:13:18;100502.75;;;23.87;63.05
21449;BME280;10885;52.830;13.788;2022-08-19T08:18:20;100508.88;;;24.04;62.51
21449;BME280;10885;52.830;13.788;2022-08-19T08:23:28;100525.47;;;24.15;62.33
21449;BME280;10885;52.830;13.788;2022-08-19T08:28:32;100520.25;;;24.28;62.27
21449;BME280;10885;52.830;13.788;2022-08-19T08:33:34;100527.22;;;24.36;62.12
21449;BME280;10885;52.830;13.788;2022-08-19T08:38:37;100516.72;;;24.41;61.68
21449;BME280;10885;52.830;13.788;2022-08-19T08:43:45;100510.63;;;24.37;61.80
21449;BME280;10885;52.830;13.788;2022-08-19T08:53:57;100515.84;;;24.33;61.76
21449;BME280;10885;52.830;13.788;2022-08-19T08:59:07;100517.59;;;24.45;61.74
21449;BME280;10885;52.830;13.788;2022-08-19T09:04:12;100521.09;;;24.76;61.47
21449;BME280;10885;52.830;13.788;2022-08-19T09:09:30;100515.66;;;25.47;60.77
21449;BME280;10885;52.830;13.788;2022-08-19T09:14:43;100512.41;;;26.39;59.31
21449;BME280;10885;52.830;13.788;2022-08-19T09:20:18;100504.63;;;28.39;56.05
21449;BME280;10885;52.830;13.788;2022-08-19T09:25:21;100515.13;;;27.85;54.86
21449;BME280;10885;52.830;13.788;2022-08-19T09:30:31;100524.63;;;27.31;55.95
21449;BME280;10885;52.830;13.788;2022-08-19T09:35:34;100526.28;;;26.55;56.85
21449;BME280;10885;52.830;13.788;2022-08-19T09:40:54;100517.91;;;26.10;57.81
21449;BME280;10885;52.830;13.788;2022-08-19T09:45:57;100515.28;;;26.08;58.20
21449;BME280;10885;52.830;13.788;2022-08-19T09:51:04;100515.63;;;26.75;57.59
21449;BME280;10885;52.830;13.788;2022-08-19T09:56:13;100519.72;;;29.27;55.53
21449;BME280;10885;52.830;13.788;2022-08-19T10:01:22;100520.19;;;29.46;52.71
21449;BME280;10885;52.830;13.788;2022-08-19T10:06:25;100522.06;;;28.98;53.75
21449;BME280;10885;52.830;13.788;2022-08-19T10:11:47;100525.66;;;32.33;50.82
21449;BME280;10885;52.830;13.788;2022-08-19T10:16:56;100535.56;;;33.97;46.44
21449;BME280;10885;52.830;13.788;2022-08-19T10:22:03;100528.56;;;32.77;46.96
21449;BME280;10885;52.830;13.788;2022-08-19T10:27:05;100525.16;;;34.97;44.89
21449;BME280;10885;52.830;13.788;2022-08-19T10:32:10;100519.84;;;36.28;42.64
21449;BME280;10885;52.830;13.788;2022-08-19T10:37:16;100523.84;;;35.83;41.62
21449;BME280;10885;52.830;13.788;2022-08-19T10:42:25;100515.53;;;35.13;43.48
21449;BME280;10885;52.830;13.788;2022-08-19T10:47:27;100518.19;;;34.53;42.40
21449;BME280;10885;52.830;13.788;2022-08-19T10:52:33;100508.94;;;32.30;46.75
21449;BME280;10885;52.830;13.788;2022-08-19T10:57:39;100494.88;;;33.95;44.80
21449;BME280;10885;52.830;13.788;2022-08-19T11:03:03;100507.69;;;32.67;45.61
21449;BME280;10885;52.830;13.788;2022-08-19T11:08:05;100499.06;;;32.61;45.70
21449;BME280;10885;52.830;13.788;2022-08-19T11:13:24;100488.47;;;32.34;46.73
21449;BME280;10885;52.830;13.788;2022-08-19T11:18:27;100499.69;;;31.61;46.77
21449;BME280;10885;52.830;13.788;2022-08-19T11:23:29;100516.63;;;30.60;48.66
21449;BME280;10885;52.830;13.788;2022-08-19T11:28:32;100518.78;;;29.72;50.33
21449;BME280;10885;52.830;13.788;2022-08-19T11:33:34;100513.91;;;29.52;50.59
21449;BME280;10885;52.830;13.788;2022-08-19T11:38:37;100506.91;;;29.51;50.34
21449;BME280;10885;52.830;13.788;2022-08-19T11:43:39;100519.84;;;28.74;51.63
21449;BME280;10885;52.830;13.788;2022-08-19T11:48:42;100518.75;;;28.85;52.15
21449;BME280;10885;52.830;13.788;2022-08-19T11:53:45;100524.72;;;29.41;51.48
21449;BME280;10885;52.830;13.788;2022-08-19T11:58:48;100531.25;;;31.07;50.00
21449;BME280;10885;52.830;13.788;2022-08-19T12:03:52;100534.50;;;30.14;49.46
21449;BME280;10885;52.830;13.788;2022-08-19T12:08:57;100541.25;;;29.49;51.09
21449;BME280;10885;52.830;13.788;2022-08-19T12:14:02;100537.31;;;30.44;49.86
21449;BME280;10885;52.830;13.788;2022-08-19T12:19:05;100537.88;;;30.22;50.38
21449;BME280;10885;52.830;13.788;2022-08-19T12:24:07;100543.88;;;30.63;50.33
21449;BME280;10885;52.830;13.788;2022-08-19T12:29:09;100539.25;;;30.71;49.30
21449;BME280;10885;52.830;13.788;2022-08-19T12:34:12;100548.59;;;30.85;48.70
21449;BME280;10885;52.830;13.788;2022-08-19T12:39:14;100536.31;;;30.12;49.86
21449;BME280;10885;52.830;13.788;2022-08-19T12:44:17;100535.06;;;29.91;50.56
21449;BME280;10885;52.830;13.788;2022-08-19T12:49:20;100541.31;;;29.88;50.46
21449;BME280;10885;52.830;13.788;2022-08-19T12:54:43;100543.31;;;28.88;52.10
21449;BME280;10885;52.830;13.788;2022-08-19T12:59:45;100557.72;;;28.17;53.26
21449;BME280;10885;52.830;13.788;2022-08-19T13:04:48;100540.31;;;28.60;53.59
21449;BME280;10885;52.830;13.788;2022-08-19T13:09:51;100538.03;;;28.37;52.97
21449;BME280;10885;52.830;13.788;2022-08-19T13:14:55;100544.94;;;27.87;53.99
21449;BME280;10885;52.830;13.788;2022-08-19T13:19:57;100540.22;;;27.50;54.90
21449;BME280;10885;52.830;13.788;2022-08-19T13:25:00;100539.56;;;27.29;55.52
21449;BME280;10885;52.830;13.788;2022-08-19T13:30:04;100537.72;;;27.37;55.61
21449;BME280;10885;52.830;13.788;2022-08-19T13:35:25;100535.09;;;27.37;55.52
21449;BME280;10885;52.830;13.788;2022-08-19T13:40:27;100525.09;;;27.63;55.35
21449;BME280;10885;52.830;13.788;2022-08-19T13:45:37;100530.91;;;28.95;53.24
21449;BME280;10885;52.830;13.788;2022-08-19T13:50:43;100528.88;;;29.92;51.60
21449;BME280;10885;52.830;13.788;2022-08-19T13:55:46;100531.81;;;30.53;50.79
21449;BME280;10885;52.830;13.788;2022-08-19T14:00:49;100518.47;;;30.92;49.91
21449;BME280;10885;52.830;13.788;2022-08-19T14:05:51;100517.47;;;30.26;50.00
21449;BME280;10885;52.830;13.788;2022-08-19T14:10:54;100509.78;;;30.52;49.88
21449;BME280;10885;52.830;13.788;2022-08-19T14:15:57;100511.53;;;29.80;51.13
21449;BME280;10885;52.830;13.788;2022-08-19T14:21:00;100513.28;;;28.95;52.73
21449;BME280;10885;52.830;13.788;2022-08-19T14:26:08;100524.22;;;28.77;52.71
21449;BME280;10885;52.830;13.788;2022-08-19T14:31:12;100524.00;;;28.88;53.27
21449;BME280;10885;52.830;13.788;2022-08-19T14:36:19;100522.81;;;29.46;52.78
21449;BME280;10885;52.830;13.788;2022-08-19T14:41:23;100520.72;;;30.03;51.15
21449;BME280;10885;52.830;13.788;2022-08-19T14:46:27;100527.34;;;29.82;51.30
21449;BME280;10885;52.830;13.788;2022-08-19T14:51:30;100523.56;;;30.29;51.05
21449;BME280;10885;52.830;13.788;2022-08-19T14:56:33;100533.34;;;30.62;49.99
21449;BME280;10885;52.830;13.788;2022-08-19T15:01:36;100530.25;;;29.69;51.49
21449;BME280;10885;52.830;13.788;2022-08-19T15:06:38;100527.66;;;29.27;52.01
21449;BME280;10885;52.830;13.788;2022-08-19T15:11:47;100529.44;;;28.79;53.52
21449;BME280;10885;52.830;13.788;2022-08-19T15:16:50;100531.38;;;28.16;54.01
21449;BME280;10885;52.830;13.788;2022-08-19T15:21:53;100526.78;;;27.68;54.88
21449;BME280;10885;52.830;13.788;2022-08-19T15:26:56;100542.25;;;27.26;55.74
21449;BME280;10885;52.830;13.788;2022-08-19T15:31:59;100547.78;;;27.00;56.41
21449;BME280;10885;52.830;13.788;2022-08-19T15:37:02;100555.06;;;26.72;56.61
21449;BME280;10885;52.830;13.788;2022-08-19T15:42:06;100562.31;;;26.44;57.33
21449;BME280;10885;52.830;13.788;2022-08-19T15:47:09;100570.38;;;26.17;57.66
21449;BME280;10885;52.830;13.788;2022-08-19T15:52:12;100574.88;;;26.05;57.99
21449;BME280;10885;52.830;13.788;2022-08-19T15:57:15;100577.56;;;25.83;58.71
21449;BME280;10885;52.830;13.788;2022-08-19T16:02:25;100592.56;;;25.59;59.08
21449;BME280;10885;52.830;13.788;2022-08-19T16:07:47;100606.63;;;25.38;59.41
21449;BME280;10885;52.830;13.788;2022-08-19T16:12:49;100605.81;;;25.29;59.40
21449;BME280;10885;52.830;13.788;2022-08-19T16:17:53;100612.81;;;25.25;59.74
21449;BME280;10885;52.830;13.788;2022-08-19T16:22:58;100612.78;;;25.19;59.75
21449;BME280;10885;52.830;13.788;2022-08-19T16:28:01;100630.28;;;25.17;59.82
21449;BME280;10885;52.830;13.788;2022-08-19T16:33:09;100631.16;;;25.11;59.76
21449;BME280;10885;52.830;13.788;2022-08-19T16:38:12;100622.41;;;25.15;59.90
21449;BME280;10885;52.830;13.788;2022-08-19T16:43:14;100611.03;;;25.10;59.99
21449;BME280;10885;52.830;13.788;2022-08-19T16:48:16;100607.53;;;25.14;60.13
21449;BME280;10885;52.830;13.788;2022-08-19T16:53:21;100607.53;;;25.14;60.07
21449;BME280;10885;52.830;13.788;2022-08-19T16:58:26;100610.16;;;25.10;59.56
21449;BME280;10885;52.830;13.788;2022-08-19T17:03:31;100604.94;;;25.04;59.81
21449;BME280;10885;52.830;13.788;2022-08-19T17:08:38;100612.81;;;24.90;60.53
21449;BME280;10885;52.830;13.788;2022-08-19T17:13:40;100620.69;;;24.82;60.46
21449;BME280;10885;52.830;13.788;2022-08-19T17:18:44;100613.69;;;24.69;60.79
21449;BME280;10885;52.830;13.788;2022-08-19T17:23:47;100611.97;;;24.58;60.93
21449;BME280;10885;52.830;13.788;2022-08-19T17:28:51;100612.78;;;24.45;61.12
21449;BME280;10885;52.830;13.788;2022-08-19T17:33:54;100616.28;;;24.32;61.23
21449;BME280;10885;52.830;13.788;2022-08-19T17:39:00;100620.63;;;24.27;61.73
21449;BME280;10885;52.830;13.788;2022-08-19T17:44:03;100622.34;;;24.18;61.59
21449;BME280;10885;52.830;13.788;2022-08-19T17:49:06;100619.72;;;24.12;61.71
21449;BME280;10885;52.830;13.788;2022-08-19T17:54:12;100617.97;;;24.04;62.25
21449;BME280;10885;52.830;13.788;2022-08-19T18:04:17;100617.03;;;23.89;62.43
21449;BME280;10885;52.830;13.788;2022-08-19T18:09:28;100624.75;;;23.61;63.26
21449;BME280;10885;52.830;13.788;2022-08-19T18:14:43;100643.06;;;23.60;62.89
21449;BME280;10885;52.830;13.788;2022-08-19T18:19:46;100646.53;;;23.57;62.86
21449;BME280;10885;52.830;13.788;2022-08-19T18:24:48;100667.41;;;23.45;63.19
21449;BME280;10885;52.830;13.788;2022-08-19T18:29:52;100676.09;;;23.38;63.44
21449;BME280;10885;52.830;13.788;2022-08-19T18:34:59;100683.03;;;23.37;63.58
21449;BME280;10885;52.830;13.788;2022-08-19T18:40:03;100689.13;;;23.33;63.48
21449;BME280;10885;52.830;13.788;2022-08-19T18:45:24;100707.38;;;23.26;63.69
21449;BME280;10885;52.830;13.788;2022-08-19T18:50:45;100707.38;;;23.24;63.65
21449;BME280;10885;52.830;13.788;2022-08-19T18:55:50;100725.63;;;23.19;63.83
21449;BME280;10885;52.830;13.788;2022-08-19T19:00:56;100724.75;;;23.16;63.79
21449;BME280;10885;52.830;13.788;2022-08-19T19:05:59;100741.31;;;23.18;63.81
21449;BME280;10885;52.830;13.788;2022-08-19T19:11:02;100739.59;;;23.20;63.94
21449;BME280;10885;52.830;13.788;2022-08-19T19:16:07;100734.31;;;23.12;64.08
21449;BME280;10885;52.830;13.788;2022-08-19T19:21:12;100735.97;;;23.04;64.12
21449;BME280;10885;52.830;13.788;2022-08-19T19:26:15;100744.63;;;23.00;64.29
21449;BME280;10885;52.830;13.788;2022-08-19T19:31:21;100742.88;;;23.00;64.30
21449;BME280;10885;52.830;13.788;2022-08-19T19:36:24;100748.97;;;22.98;64.47
21449;BME280;10885;52.830;13.788;2022-08-19T19:41:27;100748.91;;;22.93;64.33
21449;BME280;10885;52.830;13.788;2022-08-19T19:46:31;100743.59;;;22.86;64.56
21449;BME280;10885;52.830;13.788;2022-08-19T19:51:34;100754.00;;;22.81;64.65
21449;BME280;10885;52.830;13.788;2022-08-19T19:56:41;100761.88;;;22.82;64.60
